Time;durP1;ratioP1;P1;durP2;ratioP2;P2;SDS_P1;SDS_P2;PMS_P1;PMS_P2;Temp;Humidity;BMP_temperature;BMP_pressure;BME280_temperature;BME280_humidity;BME280_pressure;Samples;Min_cycle;Max_cycle;Signal;HPM_P1;HPM_P2
2021/04/24 00:01:30;;;;;;;9.90;3.97;;;6.10;99.90;;;;;;5063828;28;20029;-75
2021/04/24 00:04:00;;;;;;;10.93;3.65;;;6.10;99.90;;;;;;5065332;28;20041;-76
2021/04/24 00:06:25;;;;;;;6.60;2.58;;;6.10;99.90;;;;;;5063806;28;20383;-76
2021/04/24 00:08:52;;;;;;;9.57;3.00;;;6.10;99.90;;;;;;5064970;28;20059;-74
2021/04/24 00:11:18;;;;;;;8.57;3.28;;;6.10;99.90;;;;;;5065022;28;20076;-75
2021/04/24 00:13:44;;;;;;;9.40;3.40;;;6.00;99.90;;;;;;5064895;28;20032;-75
2021/04/24 00:16:10;;;;;;;12.65;3.63;;;5.90;99.90;;;;;;5063710;28;20032;-76
2021/04/24 00:18:36;;;;;;;11.05;3.72;;;5.80;99.90;;;;;;5064896;28;20051;-76
2021/04/24 00:21:02;;;;;;;6.88;3.15;;;5.70;99.90;;;;;;5062939;28;20029;-76
2021/04/24 00:23:28;;;;;;;10.73;4.43;;;5.60;99.90;;;;;;5063263;28;20079;-76
2021/04/24 00:25:54;;;;;;;15.65;3.67;;;5.60;99.90;;;;;;5064468;28;20029;-75
2021/04/24 00:28:19;;;;;;;7.18;2.85;;;5.60;99.90;;;;;;5064075;28;20040;-75
2021/04/24 00:30:46;;;;;;;10.02;2.28;;;5.50;99.90;;;;;;5064415;28;20149;-74
2021/04/24 00:33:12;;;;;;;6.72;2.97;;;5.60;99.90;;;;;;5064709;28;20084;-76
2021/04/24 00:35:37;;;;;;;8.02;3.70;;;5.40;99.90;;;;;;5064071;28;20036;-75
2021/04/24 00:38:03;;;;;;;9.68;3.72;;;5.50;99.90;;;;;;5064499;28;20112;-75
2021/04/24 00:40:30;;;;;;;10.82;3.28;;;5.60;99.90;;;;;;5063553;28;20097;-75
2021/04/24 00:42:56;;;;;;;15.30;3.88;;;5.40;99.90;;;;;;5063396;28;20053;-75
2021/04/24 00:45:23;;;;;;;7.20;2.72;;;5.40;99.90;;;;;;5064348;28;20068;-75
2021/04/24 00:47:50;;;;;;;7.80;2.72;;;5.40;99.90;;;;;;5064228;28;20051;-74
2021/04/24 00:50:20;;;;;;;6.00;2.92;;;5.30;99.90;;;;;;5064380;28;20032;-75
2021/04/24 00:52:46;;;;;;;3.92;1.92;;;5.30;99.90;;;;;;5064377;28;20059;-75
2021/04/24 00:55:13;;;;;;;9.98;2.42;;;5.30;99.90;;;;;;5063936;28;20029;-75
2021/04/24 00:57:40;;;;;;;4.82;2.70;;;5.30;99.90;;;;;;5064094;28;20024;-75
2021/04/24 01:00:08;;;;;;;7.43;2.13;;;5.30;99.90;;;;;;5062644;28;20024;-76
2021/04/24 01:02:33;;;;;;;3.42;2.17;;;5.30;99.90;;;;;;5064072;28;20443;-75
2021/04/24 01:05:00;;;;;;;5.50;2.15;;;5.30;99.90;;;;;;5063116;28;20440;-76
2021/04/24 01:07:26;;;;;;;9.70;2.30;;;5.20;99.90;;;;;;5064273;28;20033;-74
2021/04/24 01:09:51;;;;;;;7.80;2.72;;;5.20;99.90;;;;;;5064922;28;20024;-73
2021/04/24 01:12:17;;;;;;;6.93;1.90;;;5.20;99.90;;;;;;5068316;28;20107;-74
2021/04/24 01:14:43;;;;;;;5.32;2.33;;;5.20;99.90;;;;;;5067178;28;20068;-74
2021/04/24 01:17:08;;;;;;;5.53;2.33;;;5.20;99.90;;;;;;5066671;28;20056;-74
2021/04/24 01:19:34;;;;;;;4.10;2.45;;;5.10;99.90;;;;;;5067028;28;20036;-75
2021/04/24 01:22:10;;;;;;;4.10;2.00;;;5.20;99.90;;;;;;5067688;28;20391;-76
2021/04/24 01:24:37;;;;;;;6.75;2.15;;;5.20;99.90;;;;;;5066806;28;20393;-75
2021/04/24 01:27:04;;;;;;;4.63;2.20;;;5.20;99.90;;;;;;5067513;28;20044;-75
2021/04/24 01:29:30;;;;;;;4.63;2.35;;;5.20;99.90;;;;;;5068042;28;20033;-77
2021/04/24 01:31:56;;;;;;;6.35;2.30;;;5.20;99.90;;;;;;5068465;28;20568;-74
2021/04/24 01:34:21;;;;;;;6.93;1.98;;;5.10;99.90;;;;;;5066800;28;20115;-74
2021/04/24 01:36:47;;;;;;;5.93;1.90;;;5.10;99.90;;;;;;5067849;28;20874;-74
2021/04/24 01:39:13;;;;;;;11.00;3.10;;;5.10;99.90;;;;;;5066675;28;20120;-73
2021/04/24 01:41:39;;;;;;;5.22;3.05;;;5.10;99.90;;;;;;5068230;28;20213;-74
2021/04/24 01:44:05;;;;;;;4.22;2.15;;;5.10;99.90;;;;;;5067642;28;20021;-74
2021/04/24 01:46:30;;;;;;;6.40;2.33;;;5.00;99.90;;;;;;5066251;28;20096;-75
2021/04/24 01:48:56;;;;;;;4.05;1.95;;;5.00;99.90;;;;;;5066320;28;20067;-75
2021/04/24 01:51:21;;;;;;;5.47;1.90;;;5.00;99.90;;;;;;5067894;28;20075;-74
2021/04/24 01:53:48;;;;;;;5.93;1.95;;;5.00;99.90;;;;;;5067708;28;20025;-74
2021/04/24 01:56:14;;;;;;;4.35;2.70;;;5.00;99.90;;;;;;5067359;28;20025;-76
2021/04/24 01:58:40;;;;;;;10.10;2.30;;;5.00;99.90;;;;;;5067462;28;20025;-75
2021/04/24 02:01:09;;;;;;;4.03;2.00;;;5.00;99.90;;;;;;5067489;28;20110;-76
2021/04/24 02:03:35;;;;;;;8.48;3.20;;;4.90;99.90;;;;;;5067225;28;20043;-74
2021/04/24 02:06:01;;;;;;;6.85;2.85;;;4.90;99.90;;;;;;5066386;28;20455;-75
2021/04/24 02:08:40;;;;;;;3.25;1.75;;;4.90;99.90;;;;;;5067401;28;20032;-75
2021/04/24 02:11:09;;;;;;;5.05;2.50;;;4.80;99.90;;;;;;5067583;28;20051;-76
2021/04/24 02:13:39;;;;;;;4.40;2.33;;;4.80;99.90;;;;;;5067325;28;20060;-75
2021/04/24 02:16:13;;;;;;;14.50;2.20;;;4.80;99.90;;;;;;5067085;28;20521;-75
2021/04/24 02:18:38;;;;;;;13.48;2.40;;;4.80;99.90;;;;;;5067145;28;20097;-74
2021/04/24 02:21:05;;;;;;;11.68;3.42;;;4.80;99.90;;;;;;5065401;28;20041;-75
2021/04/24 02:23:39;;;;;;;6.13;2.30;;;4.80;99.90;;;;;;5065347;28;20079;-74
2021/04/24 02:26:07;;;;;;;5.38;2.88;;;4.80;99.90;;;;;;5067093;28;20029;-75
2021/04/24 02:28:33;;;;;;;5.70;2.88;;;4.80;99.90;;;;;;5065833;28;20171;-74
2021/04/24 02:30:59;;;;;;;6.95;2.85;;;4.70;99.90;;;;;;5067092;28;20029;-75
2021/04/24 02:33:25;;;;;;;4.80;2.55;;;4.80;99.90;;;;;;5066696;28;20466;-74
2021/04/24 02:35:54;;;;;;;5.50;2.25;;;4.80;99.90;;;;;;5066967;28;20025;-74
2021/04/24 02:38:31;;;;;;;9.25;2.92;;;4.80;99.90;;;;;;5066657;28;20029;-74
2021/04/24 02:41:00;;;;;;;10.98;2.75;;;4.80;99.90;;;;;;5064997;28;20055;-74
2021/04/24 02:43:26;;;;;;;7.22;2.78;;;4.80;99.90;;;;;;5065328;28;20032;-75
2021/04/24 02:45:52;;;;;;;6.22;2.28;;;4.90;99.90;;;;;;5066838;28;20033;-74
2021/04/24 02:48:18;;;;;;;14.90;3.70;;;4.80;99.90;;;;;;5066503;28;20037;-74
2021/04/24 02:50:46;;;;;;;11.00;2.20;;;4.80;99.90;;;;;;5066426;28;20056;-74
2021/04/24 02:53:12;;;;;;;7.25;2.95;;;4.80;99.90;;;;;;5065189;28;20025;-74
2021/04/24 02:55:38;;;;;;;11.60;3.08;;;4.90;99.90;;;;;;5066733;28;20029;-75
2021/04/24 02:58:04;;;;;;;17.50;3.45;;;4.90;99.90;;;;;;5066285;28;20033;-74
2021/04/24 03:00:31;;;;;;;5.47;2.63;;;4.90;99.90;;;;;;5066550;28;20041;-76
2021/04/24 03:03:04;;;;;;;4.32;2.22;;;5.00;99.90;;;;;;5067016;28;20031;-75
2021/04/24 03:05:30;;;;;;;6.22;2.90;;;5.00;99.90;;;;;;5066623;28;20036;-75
2021/04/24 03:07:56;;;;;;;5.88;2.45;;;5.10;99.90;;;;;;5066384;28;20100;-74
2021/04/24 03:10:23;;;;;;;8.55;3.33;;;5.10;99.90;;;;;;5065089;28;20029;-74
2021/04/24 03:12:49;;;;;;;5.13;2.05;;;5.20;99.90;;;;;;5064650;28;20043;-74
2021/04/24 03:15:15;;;;;;;18.58;3.20;;;5.20;99.90;;;;;;5066273;28;20028;-75
2021/04/24 03:17:40;;;;;;;7.20;2.78;;;5.20;99.90;;;;;;5065734;28;20088;-75
2021/04/24 03:20:08;;;;;;;7.70;2.75;;;5.30;99.90;;;;;;5064732;28;20029;-75
2021/04/24 03:22:36;;;;;;;9.60;3.10;;;5.30;99.90;;;;;;5065844;28;20045;-75
2021/04/24 03:25:04;;;;;;;5.72;2.90;;;5.30;99.90;;;;;;5064254;28;20033;-75
2021/04/24 03:27:30;;;;;;;4.85;1.77;;;5.30;99.90;;;;;;5065881;28;20040;-77
2021/04/24 03:29:56;;;;;;;8.18;2.58;;;5.40;99.90;;;;;;5066002;28;20044;-76
2021/04/24 03:32:22;;;;;;;8.88;2.75;;;5.40;99.90;;;;;;5065424;28;20060;-74
2021/04/24 03:34:48;;;;;;;9.50;3.20;;;5.40;99.90;;;;;;5063879;28;20036;-75
2021/04/24 03:37:13;;;;;;;3.30;1.95;;;5.30;99.90;;;;;;5064289;28;20025;-73
2021/04/24 03:39:39;;;;;;;8.38;2.22;;;5.50;99.90;;;;;;5065452;28;20028;-74
2021/04/24 03:42:06;;;;;;;8.88;2.83;;;5.40;99.90;;;;;;5064086;28;20025;-74
2021/04/24 03:44:31;;;;;;;13.13;3.03;;;5.40;99.90;;;;;;5065322;28;20044;-73
2021/04/24 03:46:57;;;;;;;4.85;2.05;;;5.40;99.90;;;;;;5064258;28;20059;-75
2021/04/24 03:49:23;;;;;;;4.45;2.22;;;5.40;99.90;;;;;;5065830;28;20025;-75
2021/04/24 03:51:48;;;;;;;8.07;2.95;;;5.40;99.90;;;;;;5063897;28;20040;-75
2021/04/24 03:54:15;;;;;;;5.40;1.80;;;5.30;99.90;;;;;;5064926;28;20025;-73
2021/04/24 03:56:40;;;;;;;13.02;2.65;;;5.30;99.90;;;;;;5065492;28;20051;-74
2021/04/24 03:59:06;;;;;;;7.95;2.92;;;5.20;99.90;;;;;;5065313;28;20033;-77
2021/04/24 04:01:31;;;;;;;6.45;1.98;;;5.20;99.90;;;;;;5065345;28;20083;-73
2021/04/24 04:03:57;;;;;;;10.15;3.22;;;5.10;99.90;;;;;;5065282;28;20140;-75
2021/04/24 04:06:23;;;;;;;3.90;2.08;;;5.10;99.90;;;;;;5063777;28;20029;-74
2021/04/24 04:08:49;;;;;;;5.75;2.38;;;5.00;99.90;;;;;;5065024;28;20092;-75
2021/04/24 04:11:15;;;;;;;5.05;2.25;;;5.00;99.90;;;;;;5064859;28;20088;-74
2021/04/24 04:13:40;;;;;;;6.57;2.55;;;5.00;99.90;;;;;;5065026;28;20032;-74
2021/04/24 04:16:06;;;;;;;7.97;2.58;;;5.00;99.90;;;;;;5065081;28;20060;-74
2021/04/24 04:18:35;;;;;;;7.68;2.85;;;5.00;99.90;;;;;;5063505;28;20384;-76
2021/04/24 04:21:03;;;;;;;3.17;1.95;;;5.00;99.90;;;;;;5063658;28;20024;-74
2021/04/24 04:23:28;;;;;;;4.15;2.28;;;5.00;99.90;;;;;;5063087;28;20053;-75
2021/04/24 04:25:56;;;;;;;4.60;2.42;;;5.00;99.90;;;;;;5064754;28;20044;-75
2021/04/24 04:28:23;;;;;;;3.80;2.22;;;5.00;99.90;;;;;;5065055;28;20048;-74
2021/04/24 04:30:50;;;;;;;7.20;2.45;;;5.00;99.90;;;;;;5063290;28;20032;-75
2021/04/24 04:33:17;;;;;;;6.50;2.17;;;4.90;99.90;;;;;;5064249;28;20026;-74
2021/04/24 04:35:43;;;;;;;7.85;3.20;;;5.00;99.90;;;;;;5062925;28;20093;-74
2021/04/24 04:38:09;;;;;;;8.30;2.50;;;5.00;99.90;;;;;;5064410;28;20017;-76
2021/04/24 04:40:35;;;;;;;9.68;3.10;;;5.10;99.90;;;;;;5062535;28;20029;-74
2021/04/24 04:43:02;;;;;;;5.80;2.70;;;5.10;99.90;;;;;;5064585;28;20036;-73
2021/04/24 04:45:27;;;;;;;6.85;3.45;;;5.20;99.90;;;;;;5064534;28;20025;-75
2021/04/24 04:47:53;;;;;;;8.27;2.22;;;5.20;99.90;;;;;;5063263;28;20037;-73
2021/04/24 04:50:23;;;;;;;6.32;2.75;;;5.20;99.90;;;;;;5064270;28;20033;-75
2021/04/24 04:52:49;;;;;;;8.07;3.53;;;5.20;99.90;;;;;;5064288;28;20017;-74
2021/04/24 04:55:15;;;;;;;4.75;2.47;;;5.30;99.90;;;;;;5063920;28;20027;-75
2021/04/24 04:57:41;;;;;;;4.80;2.55;;;5.30;99.90;;;;;;5063014;28;20036;-74
2021/04/24 05:00:10;;;;;;;6.70;3.00;;;5.30;99.90;;;;;;5063895;28;20044;-75
2021/04/24 05:02:37;;;;;;;5.70;2.00;;;5.30;99.90;;;;;;5064087;28;20056;-76
2021/04/24 05:05:05;;;;;;;4.97;1.70;;;5.40;99.90;;;;;;5064698;28;20032;-76
2021/04/24 05:07:31;;;;;;;9.27;3.08;;;5.40;99.90;;;;;;5064281;28;20052;-76
2021/04/24 05:09:57;;;;;;;8.23;2.97;;;5.40;99.90;;;;;;5064309;28;20036;-74
2021/04/24 05:12:22;;;;;;;6.00;2.42;;;5.50;99.90;;;;;;5062774;28;20403;-74
2021/04/24 05:14:48;;;;;;;5.40;2.38;;;5.50;99.90;;;;;;5062614;28;20025;-75
2021/04/24 05:17:14;;;;;;;7.35;2.33;;;5.50;99.90;;;;;;5063835;28;20033;-74
2021/04/24 05:19:39;;;;;;;4.43;2.60;;;5.50;99.90;;;;;;5062755;28;20029;-74
2021/04/24 05:22:05;;;;;;;5.50;2.63;;;5.60;99.90;;;;;;5064228;28;20072;-75
2021/04/24 05:24:31;;;;;;;6.30;1.98;;;5.80;99.90;;;;;;5062327;28;20485;-75
2021/04/24 05:26:57;;;;;;;6.18;2.42;;;5.70;99.90;;;;;;5053090;28;20036;-76
2021/04/24 05:29:23;;;;;;;15.98;2.97;;;5.80;99.90;;;;;;5042740;28;20034;-76
2021/04/24 05:31:49;;;;;;;7.00;1.90;;;5.80;99.90;;;;;;5043055;28;20033;-74
2021/04/24 05:34:15;;;;;;;5.97;2.83;;;5.90;99.90;;;;;;5044291;28;20026;-73
2021/04/24 05:36:42;;;;;;;7.82;2.88;;;6.00;99.90;;;;;;5048222;28;20030;-74
2021/04/24 05:39:08;;;;;;;5.57;2.15;;;6.10;99.90;;;;;;5060631;28;20056;-73
2021/04/24 05:41:35;;;;;;;5.53;2.03;;;6.10;99.90;;;;;;5043986;28;20382;-74
2021/04/24 05:44:03;;;;;;;7.10;2.78;;;6.10;99.90;;;;;;5042920;28;20068;-74
2021/04/24 05:46:29;;;;;;;4.43;2.20;;;6.10;99.90;;;;;;5044573;28;20086;-74
2021/04/24 05:48:55;;;;;;;6.05;1.98;;;6.10;99.90;;;;;;5043790;28;20108;-74
2021/04/24 05:51:22;;;;;;;9.05;2.03;;;6.10;99.90;;;;;;5042538;28;20450;-74
2021/04/24 05:53:50;;;;;;;8.57;2.47;;;6.10;99.90;;;;;;5042735;28;20096;-74
2021/04/24 05:56:17;;;;;;;6.50;2.13;;;6.20;99.90;;;;;;5045162;28;20033;-74
2021/04/24 05:58:43;;;;;;;8.20;2.63;;;6.20;99.90;;;;;;5047999;28;20028;-73
2021/04/24 06:01:09;;;;;;;6.10;2.47;;;6.30;99.90;;;;;;5045971;28;20521;-74
2021/04/24 06:03:35;;;;;;;9.05;2.83;;;6.30;99.90;;;;;;5046280;28;20340;-75
2021/04/24 06:06:02;;;;;;;3.30;1.92;;;6.40;99.90;;;;;;5055857;28;20051;-74
2021/04/24 06:08:27;;;;;;;6.13;2.30;;;6.40;99.90;;;;;;5047401;28;20072;-74
2021/04/24 06:10:53;;;;;;;5.75;1.60;;;6.40;99.90;;;;;;5056298;28;20029;-73
2021/04/24 06:13:19;;;;;;;7.22;2.83;;;6.50;99.90;;;;;;5065929;28;20025;-73
2021/04/24 06:15:44;;;;;;;3.25;1.52;;;6.50;99.90;;;;;;5066198;28;20115;-74
2021/04/24 06:18:10;;;;;;;7.97;1.60;;;6.50;99.90;;;;;;5065963;28;20041;-75
2021/04/24 06:20:36;;;;;;;6.57;1.85;;;6.60;99.90;;;;;;5065768;28;20029;-74
2021/04/24 06:23:03;;;;;;;4.43;1.83;;;6.70;99.90;;;;;;5065812;28;20049;-75
2021/04/24 06:25:29;;;;;;;7.43;2.20;;;6.70;99.90;;;;;;5067332;28;20049;-76
2021/04/24 06:27:54;;;;;;;6.22;2.50;;;6.70;99.90;;;;;;5067533;28;20041;-75
2021/04/24 06:30:21;;;;;;;6.47;2.25;;;6.70;99.90;;;;;;5067368;28;20108;-75
2021/04/24 06:32:49;;;;;;;4.15;2.53;;;6.80;99.90;;;;;;5066104;28;20084;-74
2021/04/24 06:35:16;;;;;;;3.08;1.48;;;6.70;99.90;;;;;;5065735;28;20071;-75
2021/04/24 06:37:41;;;;;;;6.47;2.25;;;6.90;99.90;;;;;;5065536;28;20033;-76
2021/04/24 06:40:10;;;;;;;9.70;1.83;;;6.90;99.90;;;;;;5066854;28;20028;-75
2021/04/24 06:42:36;;;;;;;7.60;2.35;;;6.90;99.90;;;;;;5065040;28;20021;-74
2021/04/24 06:45:05;;;;;;;12.20;2.38;;;7.00;99.90;;;;;;5057921;28;20044;-74
2021/04/24 06:47:33;;;;;;;11.07;2.75;;;7.10;99.90;;;;;;5057939;28;20506;-75
2021/04/24 06:50:00;;;;;;;4.80;2.10;;;7.20;99.90;;;;;;5048201;28;20018;-75
2021/04/24 06:52:26;;;;;;;4.43;1.63;;;7.20;99.90;;;;;;5046266;28;20049;-75
2021/04/24 06:54:51;;;;;;;4.82;2.15;;;7.20;99.90;;;;;;5045227;28;20034;-76
2021/04/24 06:57:17;;;;;;;4.55;2.08;;;7.30;99.90;;;;;;5046101;28;20738;-75
2021/04/24 06:59:44;;;;;;;5.90;2.83;;;7.40;99.90;;;;;;5046573;28;20056;-75
2021/04/24 07:02:13;;;;;;;5.18;2.00;;;7.40;99.90;;;;;;5051463;28;20041;-75
2021/04/24 07:04:39;;;;;;;5.68;1.75;;;7.50;99.90;;;;;;5046234;28;20026;-75
2021/04/24 07:07:05;;;;;;;4.90;2.25;;;7.50;99.90;;;;;;5044137;28;20034;-76
2021/04/24 07:09:31;;;;;;;4.15;1.75;;;7.60;99.90;;;;;;5044168;28;20064;-74
2021/04/24 07:11:57;;;;;;;2.55;1.75;;;7.70;99.90;;;;;;5044782;28;20025;-75
2021/04/24 07:14:23;;;;;;;5.55;2.53;;;7.80;99.90;;;;;;5046538;28;20441;-76
2021/04/24 07:16:49;;;;;;;10.98;1.90;;;7.80;99.90;;;;;;5043819;28;20025;-76
2021/04/24 07:19:14;;;;;;;3.13;1.58;;;7.90;99.90;;;;;;5051581;28;20021;-76
2021/04/24 07:21:40;;;;;;;9.63;2.05;;;7.80;99.90;;;;;;5052081;28;20045;-75
2021/04/24 07:24:06;;;;;;;5.10;1.83;;;8.00;99.90;;;;;;5045715;28;20030;-76
2021/04/24 07:26:32;;;;;;;9.95;1.73;;;8.10;99.90;;;;;;5045119;28;20032;-76
2021/04/24 07:28:58;;;;;;;13.52;1.90;;;8.20;99.90;;;;;;5046165;28;20033;-77
2021/04/24 07:31:24;;;;;;;8.18;2.08;;;8.30;99.90;;;;;;5045058;28;20025;-74
2021/04/24 07:33:51;;;;;;;11.63;2.42;;;8.60;99.90;;;;;;5044594;28;20053;-74
2021/04/24 07:36:18;;;;;;;6.70;2.03;;;8.80;99.90;;;;;;5045487;28;20037;-77
2021/04/24 07:38:44;;;;;;;10.43;2.58;;;8.90;99.90;;;;;;5046179;28;20048;-77
2021/04/24 07:41:10;;;;;;;6.95;1.98;;;9.00;99.90;;;;;;5045603;28;20030;-76
2021/04/24 07:43:36;;;;;;;10.00;2.28;;;9.10;99.90;;;;;;5046184;28;20021;-76
2021/04/24 07:46:03;;;;;;;6.40;1.70;;;9.30;99.90;;;;;;5044877;28;20029;-76
2021/04/24 07:48:28;;;;;;;6.25;1.40;;;9.40;99.90;;;;;;5045426;28;20052;-76
2021/04/24 07:50:54;;;;;;;7.28;2.17;;;9.50;99.90;;;;;;5043967;28;20029;-77
2021/04/24 07:53:21;;;;;;;5.70;1.90;;;9.60;99.90;;;;;;5046198;28;20363;-77
2021/04/24 07:55:47;;;;;;;8.13;1.90;;;9.70;99.90;;;;;;5046257;28;20478;-77
2021/04/24 07:58:14;;;;;;;8.88;2.00;;;9.70;99.90;;;;;;5057097;28;20061;-76
2021/04/24 08:00:40;;;;;;;10.02;1.67;;;9.70;99.90;;;;;;5050031;28;20033;-76
2021/04/24 08:03:05;;;;;;;3.35;1.70;;;9.80;99.90;;;;;;5044070;28;20074;-76
2021/04/24 08:05:33;;;;;;;6.25;1.65;;;9.80;99.90;;;;;;5042544;28;20036;-76
2021/04/24 08:08:00;;;;;;;10.75;1.27;;;9.90;99.90;;;;;;5043711;28;20044;-73
2021/04/24 08:10:26;;;;;;;16.50;2.58;;;10.00;99.90;;;;;;5045612;28;20537;-76
2021/04/24 08:12:52;;;;;;;2.10;1.40;;;10.00;99.90;;;;;;5043877;28;20097;-75
2021/04/24 08:15:19;;;;;;;2.85;1.05;;;10.20;99.90;;;;;;5043691;28;20026;-78
2021/04/24 08:17:46;;;;;;;6.53;2.17;;;10.40;99.90;;;;;;5044183;28;20022;-77
2021/04/24 08:20:14;;;;;;;3.95;0.90;;;10.40;99.90;;;;;;5043047;28;20526;-77
2021/04/24 08:22:40;;;;;;;3.22;1.75;;;10.50;99.90;;;;;;5044687;28;20041;-77
2021/04/24 08:25:07;;;;;;;12.70;1.90;;;10.70;99.90;;;;;;5044676;28;20021;-77
2021/04/24 08:27:32;;;;;;;3.03;1.15;;;10.70;99.90;;;;;;5045121;28;20038;-76
2021/04/24 08:29:58;;;;;;;7.25;1.83;;;10.70;99.90;;;;;;5044405;28;20028;-76
2021/04/24 08:32:24;;;;;;;2.60;1.05;;;10.80;99.90;;;;;;5044470;28;20030;-75
2021/04/24 08:34:49;;;;;;;3.20;1.10;;;10.70;99.90;;;;;;5044533;28;20157;-75
2021/04/24 08:37:15;;;;;;;6.32;1.75;;;10.60;99.90;;;;;;5042974;28;20063;-75
2021/04/24 08:39:41;;;;;;;10.13;1.20;;;10.50;99.90;;;;;;5043324;28;20029;-75
2021/04/24 08:42:07;;;;;;;8.82;1.33;;;10.40;99.90;;;;;;5042834;28;20168;-73
2021/04/24 08:44:33;;;;;;;8.65;1.63;;;10.60;99.90;;;;;;5044871;28;20025;-76
2021/04/24 08:47:01;;;;;;;1.52;0.85;;;10.70;99.90;;;;;;5044538;28;20085;-76
2021/04/24 08:49:27;;;;;;;1.83;0.88;;;10.70;99.90;;;;;;5044342;28;20056;-75
2021/04/24 08:51:54;;;;;;;5.78;1.45;;;10.80;99.90;;;;;;5047289;28;20081;-76
2021/04/24 08:54:21;;;;;;;4.38;1.88;;;10.80;99.90;;;;;;5054297;28;20037;-73
2021/04/24 08:56:47;;;;;;;6.65;1.35;;;11.00;99.90;;;;;;5044791;28;20032;-74
2021/04/24 08:59:13;;;;;;;10.23;1.77;;;11.00;99.90;;;;;;5043922;28;20033;-75
2021/04/24 09:01:40;;;;;;;10.27;1.10;;;11.20;99.90;;;;;;5042825;28;20025;-75
2021/04/24 09:04:06;;;;;;;12.75;1.20;;;11.10;99.90;;;;;;5044488;28;20101;-75
2021/04/24 09:06:33;;;;;;;2.55;0.80;;;11.20;99.90;;;;;;5043464;28;20037;-74
2021/04/24 09:09:02;;;;;;;12.45;1.02;;;11.30;99.90;;;;;;5044197;28;20438;-74
2021/04/24 09:11:30;;;;;;;2.85;1.30;;;11.20;99.90;;;;;;5044106;28;20029;-74
2021/04/24 09:14:03;;;;;;;6.22;1.55;;;11.20;99.90;;;;;;5043072;28;20025;-72
2021/04/24 09:16:29;;;;;;;1.08;0.80;;;11.20;99.90;;;;;;5044176;28;20033;-74
2021/04/24 09:18:56;;;;;;;4.07;1.10;;;11.10;99.90;;;;;;5044160;28;20065;-75
2021/04/24 09:21:24;;;;;;;2.65;1.27;;;11.20;99.90;;;;;;5041445;28;20047;-74
2021/04/24 09:23:50;;;;;;;3.33;0.63;;;11.50;99.90;;;;;;5043307;28;20033;-75
2021/04/24 09:26:23;;;;;;;5.50;1.05;;;11.90;99.90;;;;;;5042345;28;20037;-74
2021/04/24 09:28:57;;;;;;;5.70;1.10;;;12.10;99.90;;;;;;5043016;28;20063;-77
2021/04/24 09:31:28;;;;;;;1.58;0.80;;;12.20;99.90;;;;;;5044151;28;20025;-75
2021/04/24 09:33:58;;;;;;;2.30;0.63;;;11.90;99.90;;;;;;5048353;28;20045;-73
2021/04/24 09:36:32;;;;;;;3.92;1.30;;;11.70;99.90;;;;;;5048160;28;20089;-74
2021/04/24 09:39:00;;;;;;;;;;;11.80;99.90;;;;;;5048381;28;20041;-74
2021/04/24 09:41:30;;;;;;;8.82;0.75;;;11.80;99.90;;;;;;5047915;28;19909;-74
2021/04/24 09:44:13;;;;;;;1.65;0.68;;;11.90;99.90;;;;;;5050331;28;20390;-74
2021/04/24 09:46:47;;;;;;;1.15;0.60;;;12.00;99.90;;;;;;5049499;28;20401;-72
2021/04/24 09:49:17;;;;;;;;;;;12.00;99.90;;;;;;5068336;28;20047;-74
2021/04/24 09:52:00;;;;;;;3.10;0.77;;;12.10;99.90;;;;;;5067752;28;19936;-74
2021/04/24 09:54:45;;;;;;;5.15;1.00;;;12.20;99.90;;;;;;5066618;28;20033;-72
2021/04/24 09:57:22;;;;;;;0.82;0.32;;;12.70;99.90;;;;;;5063254;28;20036;-74
2021/04/24 10:00:04;;;;;;;2.28;0.57;;;12.90;99.90;;;;;;5054708;28;20029;-73
2021/04/24 10:02:39;;;;;;;3.83;0.52;;;13.00;99.90;;;;;;5056653;28;20040;-74
2021/04/24 10:05:09;;;;;;;6.80;0.95;;;13.20;99.90;;;;;;5050035;28;20033;-74
2021/04/24 10:07:40;;;;;;;2.60;0.80;;;13.50;99.90;;;;;;5056845;28;20124;-73
2021/04/24 10:10:10;;;;;;;2.40;0.57;;;13.60;99.90;;;;;;5054065;28;20089;-73
2021/04/24 10:12:38;;;;;;;2.03;0.75;;;13.40;99.90;;;;;;5054910;28;20033;-74
2021/04/24 10:15:05;;;;;;;1.98;0.57;;;13.20;99.90;;;;;;5046741;28;20037;-74
2021/04/24 10:17:31;;;;;;;3.30;1.40;;;13.20;99.90;;;;;;5047501;28;20433;-75
2021/04/24 10:20:00;;;;;;;5.20;0.73;;;13.40;99.90;;;;;;5047695;28;20026;-73
2021/04/24 10:22:26;;;;;;;1.17;0.68;;;13.80;99.90;;;;;;5045857;28;20073;-74
2021/04/24 10:24:53;;;;;;;1.77;0.70;;;14.10;98.90;;;;;;5047129;28;20760;-74
2021/04/24 10:27:21;;;;;;;0.95;0.63;;;13.90;99.90;;;;;;5045600;28;20051;-73
2021/04/24 10:29:48;;;;;;;3.33;0.60;;;14.00;99.30;;;;;;5045576;28;20490;-72
2021/04/24 10:32:15;;;;;;;0.95;0.57;;;14.20;99.60;;;;;;5045650;28;20034;-73
2021/04/24 10:34:41;;;;;;;0.88;0.57;;;14.30;96.70;;;;;;5046941;28;20025;-73
2021/04/24 10:37:07;;;;;;;2.60;0.85;;;14.30;97.00;;;;;;5046835;28;20036;-73
2021/04/24 10:39:38;;;;;;;0.90;0.50;;;14.40;96.20;;;;;;5046702;28;20033;-71
2021/04/24 10:42:21;;;;;;;2.63;0.52;;;14.60;95.20;;;;;;5045234;28;20033;-73
2021/04/24 10:44:57;;;;;;;1.27;0.57;;;14.70;94.90;;;;;;5045402;28;20060;-72
2021/04/24 10:47:52;;;;;;;1.15;0.70;;;14.90;94.40;;;;;;5044927;28;20132;-73
2021/04/24 10:50:23;;;;;;;2.42;0.60;;;15.20;92.00;;;;;;5044858;28;20045;-75
2021/04/24 10:52:51;;;;;;;5.57;0.68;;;15.10;93.10;;;;;;5046847;28;20155;-73
2021/04/24 10:55:19;;;;;;;0.82;0.52;;;15.20;93.50;;;;;;5046654;28;20711;-72
2021/04/24 10:57:49;;;;;;;0.50;0.47;;;15.40;94.10;;;;;;5054635;28;20056;-75
2021/04/24 11:00:17;;;;;;;2.22;0.82;;;15.60;94.00;;;;;;5064612;28;20029;-72
2021/04/24 11:03:00;;;;;;;2.95;0.70;;;15.50;93.00;;;;;;5064913;28;20094;-74
2021/04/24 11:05:34;;;;;;;1.42;0.60;;;15.70;93.20;;;;;;5066009;28;20072;-73
2021/04/24 11:08:09;;;;;;;3.10;0.63;;;15.90;92.50;;;;;;5065880;28;20033;-73
2021/04/24 11:10:47;;;;;;;1.02;0.55;;;15.90;91.20;;;;;;5065701;28;20036;-74
2021/04/24 11:13:17;;;;;;;1.85;0.63;;;15.70;90.30;;;;;;5065728;28;20029;-74
2021/04/24 11:15:44;;;;;;;1.08;0.70;;;15.40;90.50;;;;;;5067580;28;20048;-72
2021/04/24 11:18:11;;;;;;;1.25;0.45;;;15.10;91.80;;;;;;5069484;28;20056;-73
2021/04/24 11:20:56;;;;;;;2.90;0.98;;;15.00;92.50;;;;;;5065194;28;20040;-72
2021/04/24 11:23:44;;;;;;;;;;;15.30;91.80;;;;;;5065442;28;20075;-74
2021/04/24 11:26:17;;;;;;;0.80;0.47;;;15.60;90.80;;;;;;5064823;28;19911;-74
2021/04/24 11:29:11;;;;;;;0.95;0.43;;;15.70;90.70;;;;;;5065599;28;20052;-75
2021/04/24 11:31:57;;;;;;;0.68;0.40;;;15.90;90.00;;;;;;5065439;28;20107;-75
2021/04/24 11:34:25;;;;;;;0.68;0.43;;;16.20;90.40;;;;;;5064181;28;20036;-74
2021/04/24 11:37:14;;;;;;;1.50;0.68;;;16.50;91.20;;;;;;5063157;28;20089;-74
2021/04/24 11:40:25;;;;;;;3.50;0.65;;;16.80;89.70;;;;;;5044637;28;20101;-73
2021/04/24 11:43:07;;;;;;;1.25;0.60;;;16.90;87.80;;;;;;5064278;28;20037;-73
2021/04/24 11:45:53;;;;;;;0.75;0.35;;;17.10;86.90;;;;;;5053094;28;20018;-74
2021/04/24 11:48:47;;;;;;;1.75;0.50;;;17.10;84.60;;;;;;5045194;28;20037;-73
2021/04/24 11:51:32;;;;;;;2.08;0.70;;;17.00;83.80;;;;;;5045674;28;20081;-74
2021/04/24 11:53:59;;;;;;;0.60;0.40;;;17.00;85.20;;;;;;5045206;28;20093;-74
2021/04/24 11:56:25;;;;;;;0.55;0.45;;;16.90;82.60;;;;;;5044361;28;20029;-75
2021/04/24 11:58:52;;;;;;;1.73;0.32;;;16.60;81.60;;;;;;5045610;28;20148;-74
2021/04/24 12:01:23;;;;;;;2.72;0.38;;;16.70;87.60;;;;;;5043875;28;20033;-74
2021/04/24 12:03:49;;;;;;;4.03;1.05;;;16.70;85.70;;;;;;5045227;28;20037;-72
2021/04/24 12:06:37;;;;;;;2.15;0.52;;;16.70;82.40;;;;;;5045247;28;20052;-73
2021/04/24 12:09:11;;;;;;;2.72;0.57;;;17.00;84.40;;;;;;5044828;28;20037;-76
2021/04/24 12:11:38;;;;;;;1.17;0.47;;;17.20;84.40;;;;;;5045150;28;20499;-75
2021/04/24 12:14:04;;;;;;;4.03;0.70;;;17.30;80.30;;;;;;5044011;28;20474;-72
2021/04/24 12:16:39;;;;;;;0.38;0.38;;;17.30;84.40;;;;;;5044673;28;20033;-74
2021/04/24 12:19:27;;;;;;;0.82;0.50;;;17.70;80.20;;;;;;5044951;28;20036;-72
2021/04/24 12:22:14;;;;;;;1.23;0.50;;;17.50;79.60;;;;;;5042585;28;20452;-75
2021/04/24 12:24:53;;;;;;;1.00;0.50;;;17.40;82.80;;;;;;5044800;28;20452;-73
2021/04/24 12:27:39;;;;;;;2.08;0.70;;;17.40;80.50;;;;;;5044721;28;20087;-75
2021/04/24 12:30:07;;;;;;;0.85;0.35;;;17.40;80.90;;;;;;5044786;28;20077;-74
2021/04/24 12:32:40;;;;;;;10.40;0.63;;;17.50;79.00;;;;;;5043168;28;20026;-74
2021/04/24 12:35:10;;;;;;;6.47;0.68;;;17.40;79.80;;;;;;5044659;28;20017;-74
2021/04/24 12:37:37;;;;;;;2.50;0.73;;;17.20;78.60;;;;;;5055814;28;20021;-74
2021/04/24 12:40:11;;;;;;;2.92;0.68;;;16.90;77.50;;;;;;5056975;28;20025;-74
2021/04/24 12:42:37;;;;;;;0.43;0.32;;;17.10;80.20;;;;;;5044404;28;20025;-74
2021/04/24 12:45:12;;;;;;;2.08;0.80;;;17.30;79.60;;;;;;5044341;28;20022;-78
2021/04/24 12:47:39;;;;;;;1.83;0.70;;;17.50;75.10;;;;;;5042991;28;20041;-73
2021/04/24 12:50:08;;;;;;;1.17;0.50;;;17.60;76.10;;;;;;5044498;28;20022;-74
2021/04/24 12:52:53;;;;;;;0.75;0.35;;;17.80;76.80;;;;;;5042764;28;20496;-79
2021/04/24 12:55:19;;;;;;;0.75;0.40;;;17.80;75.40;;;;;;5044535;28;20466;-75
2021/04/24 12:57:53;;;;;;;1.67;0.30;;;18.00;75.40;;;;;;5044192;28;20089;-74
2021/04/24 13:00:21;;;;;;;0.80;0.50;;;18.00;76.90;;;;;;5044688;28;20053;-74